createdAt,value
2019-01-04T00:01:45.180Z,102536.73
2019-01-04T00:04:23.427Z,102541.73
2019-01-04T00:06:54.262Z,102551.09
2019-01-04T00:09:25.097Z,102557.36
2019-01-04T00:11:55.891Z,102553.77
2019-01-04T00:14:26.765Z,102555.27
2019-01-04T00:16:57.669Z,102555.37
2019-01-04T00:19:28.492Z,102552.86
2019-01-04T00:21:59.382Z,102556.75
2019-01-04T00:24:30.182Z,102547.59
2019-01-04T00:27:00.970Z,102543.49
2019-01-04T00:29:31.761Z,102548.95
2019-01-04T00:32:02.570Z,102551.03
2019-01-04T00:34:33.358Z,102549.56
2019-01-04T00:37:04.222Z,102561.72
2019-01-04T00:39:35.007Z,102562.05
2019-01-04T00:42:05.797Z,102557.55
2019-01-04T00:44:36.676Z,102561.54
2019-01-04T00:47:07.489Z,102568.91
2019-01-04T00:49:38.306Z,102564.34
2019-01-04T00:52:09.154Z,102566.93
2019-01-04T00:54:39.990Z,102569.70
2019-01-04T00:58:00.230Z,102568.80
2019-01-04T01:01:32.673Z,102566.03
2019-01-04T01:04:50.277Z,102569.09
2019-01-04T01:08:37.911Z,102568.30
2019-01-04T01:12:22.931Z,102565.42
2019-01-04T01:15:53.737Z,102562.33
2019-01-04T01:18:57.731Z,102555.97
2019-01-04T01:22:21.821Z,102550.39
2019-01-04T01:25:59.189Z,102556.18
2019-01-04T01:29:38.469Z,102555.46
2019-01-04T01:32:57.129Z,102565.53
2019-01-04T01:36:09.882Z,102571.71
2019-01-04T01:39:59.087Z,102556.17
2019-01-04T01:43:24.479Z,102552.69
2019-01-04T01:46:49.945Z,102550.97
2019-01-04T01:50:12.445Z,102562.41
2019-01-04T01:52:47.834Z,102557.73
2019-01-04T01:55:18.641Z,102563.45
2019-01-04T01:57:49.406Z,102561.44
2019-01-04T02:00:20.333Z,102555.45
2019-01-04T02:02:51.129Z,102553.97
2019-01-04T02:05:21.969Z,102545.61
2019-01-04T02:07:52.753Z,102535.83
2019-01-04T02:10:23.589Z,102531.80
2019-01-04T02:12:54.357Z,102530.48
2019-01-04T02:15:25.221Z,102524.57
2019-01-04T02:17:56.059Z,102523.38
2019-01-04T02:20:26.875Z,102523.45
2019-01-04T02:22:57.689Z,102522.55
2019-01-04T02:25:28.571Z,102521.09
2019-01-04T02:27:59.376Z,102515.56
2019-01-04T02:30:30.343Z,102514.37
2019-01-04T02:33:01.133Z,102521.16
2019-01-04T02:35:31.948Z,102514.27
2019-01-04T02:38:02.825Z,102512.83
2019-01-04T02:40:33.662Z,102513.14
2019-01-04T02:43:04.624Z,102514.03
2019-01-04T02:45:37.855Z,102513.23
2019-01-04T02:48:08.789Z,102505.63
2019-01-04T02:50:39.897Z,102505.55
2019-01-04T02:53:10.864Z,102508.94
2019-01-04T02:55:44.249Z,102505.23
2019-01-04T02:58:15.405Z,102491.13
2019-01-04T03:00:46.200Z,102502.34
2019-01-04T03:03:17.201Z,102503.89
2019-01-04T03:05:48.073Z,102500.40
2019-01-04T03:08:20.658Z,102499.05
2019-01-04T03:10:51.390Z,102492.84
2019-01-04T03:13:22.184Z,102492.45
2019-01-04T03:15:53.170Z,102491.05
2019-01-04T03:18:24.185Z,102480.48
2019-01-04T03:20:55.125Z,102479.96
2019-01-04T03:23:26.072Z,102477.92
2019-01-04T03:25:57.068Z,102471.63
2019-01-04T03:28:27.784Z,102475.77
2019-01-04T03:30:58.662Z,102475.73
2019-01-04T03:33:29.439Z,102470.64
2019-01-04T03:36:19.248Z,102464.08
2019-01-04T03:38:50.248Z,102461.33
2019-01-04T03:41:21.373Z,102461.66
2019-01-04T03:43:52.387Z,102458.69
2019-01-04T03:46:23.246Z,102449.19
2019-01-04T03:48:55.300Z,102444.98
2019-01-04T03:51:27.912Z,102444.83
2019-01-04T03:53:58.806Z,102439.07
2019-01-04T03:56:29.576Z,102440.37
2019-01-04T03:59:02.936Z,102437.95
2019-01-04T04:01:36.583Z,102432.01
2019-01-04T04:04:07.720Z,102428.36
2019-01-04T04:06:39.232Z,102420.72
2019-01-04T04:09:11.256Z,102419.18
2019-01-04T04:11:45.436Z,102417.41
2019-01-04T04:14:18.846Z,102419.78
2019-01-04T04:16:49.772Z,102419.12
2019-01-04T04:19:21.042Z,102415.89
2019-01-04T04:21:59.571Z,102414.19
2019-01-04T04:24:32.793Z,102410.92
2019-01-04T04:27:03.808Z,102404.51
2019-01-04T04:29:40.252Z,102399.14
2019-01-04T04:32:11.157Z,102394.20
2019-01-04T04:34:42.008Z,102394.75
2019-01-04T04:37:12.879Z,102392.99
2019-01-04T04:39:43.724Z,102400.30
2019-01-04T04:42:17.763Z,102404.29
2019-01-04T04:44:48.611Z,102405.33
2019-01-04T04:47:19.451Z,102400.30
2019-01-04T04:49:50.226Z,102399.23
2019-01-04T04:52:21.063Z,102398.11
2019-01-04T04:54:53.160Z,102399.63
2019-01-04T04:57:30.107Z,102401.69
2019-01-04T05:00:01.136Z,102393.71
2019-01-04T05:02:32.152Z,102393.39
2019-01-04T05:05:06.076Z,102394.83
2019-01-04T05:07:36.954Z,102394.52
2019-01-04T05:10:07.758Z,102391.37
2019-01-04T05:12:41.118Z,102384.69
2019-01-04T05:15:13.324Z,102376.41
2019-01-04T05:17:47.663Z,102371.78
2019-01-04T05:20:20.327Z,102375.02
2019-01-04T05:22:51.164Z,102374.04
2019-01-04T05:25:21.951Z,102375.91
2019-01-04T05:27:52.779Z,102369.99
2019-01-04T05:30:23.738Z,102360.89
2019-01-04T05:32:54.783Z,102354.94
2019-01-04T05:35:29.531Z,102362.74
2019-01-04T05:38:02.143Z,102344.63
2019-01-04T05:40:34.331Z,102342.12
2019-01-04T05:43:05.197Z,102338.87
2019-01-04T05:45:38.387Z,102338.09
2019-01-04T05:48:11.375Z,102343.87
2019-01-04T05:50:44.524Z,102352.37
2019-01-04T05:53:17.010Z,102352.73
2019-01-04T05:55:48.071Z,102354.27
2019-01-04T05:58:20.043Z,102359.37
2019-01-04T06:00:51.009Z,102355.84
2019-01-04T06:03:22.305Z,102349.08
2019-01-04T06:05:53.285Z,102344.87
2019-01-04T06:08:25.311Z,102340.63
2019-01-04T06:10:56.061Z,102336.41
2019-01-04T06:13:26.915Z,102333.67
2019-01-04T06:15:57.702Z,102340.05
2019-01-04T06:18:28.651Z,102337.21
2019-01-04T06:21:01.099Z,102339.00
2019-01-04T06:23:35.179Z,102330.66
2019-01-04T06:26:07.129Z,102325.28
2019-01-04T06:28:38.123Z,102332.91
2019-01-04T06:31:09.186Z,102328.30
2019-01-04T06:33:40.148Z,102328.20
2019-01-04T06:36:10.968Z,102330.23
2019-01-04T06:38:41.815Z,102324.48
2019-01-04T06:41:12.663Z,102324.87
2019-01-04T06:43:43.402Z,102323.31
2019-01-04T06:46:14.264Z,102326.74
2019-01-04T06:48:48.094Z,102330.64
2019-01-04T06:51:19.110Z,102331.82
2019-01-04T06:53:56.437Z,102332.80
2019-01-04T06:56:30.301Z,102327.92
2019-01-04T06:59:01.160Z,102319.30
2019-01-04T07:01:32.120Z,102313.38
2019-01-04T07:04:03.031Z,102314.67
2019-01-04T07:06:34.014Z,102317.41
2019-01-04T07:09:06.094Z,102310.55
2019-01-04T07:11:41.108Z,102306.12
2019-01-04T07:14:14.307Z,102310.92
2019-01-04T07:16:49.324Z,102304.09
2019-01-04T07:19:23.218Z,102302.13
2019-01-04T07:21:55.043Z,102308.52
2019-01-04T07:24:30.146Z,102305.92
2019-01-04T07:27:01.310Z,102304.37
2019-01-04T07:29:33.442Z,102302.14
2019-01-04T07:32:04.630Z,102296.29
2019-01-04T07:34:35.482Z,102295.19
2019-01-04T07:37:08.958Z,102296.66
2019-01-04T07:39:39.850Z,102287.37
2019-01-04T07:42:10.790Z,102285.88
2019-01-04T07:44:42.701Z,102278.22
2019-01-04T07:47:16.198Z,102278.47
2019-01-04T07:49:47.343Z,102280.46
2019-01-04T07:52:18.354Z,102275.11
2019-01-04T07:54:49.219Z,102263.92
2019-01-04T07:57:20.045Z,102251.31
2019-01-04T07:59:50.958Z,102242.77
2019-01-04T08:02:39.053Z,102237.95
2019-01-04T08:05:19.257Z,102234.80
2019-01-04T08:07:50.088Z,102236.27
2019-01-04T08:10:20.840Z,102225.05
2019-01-04T08:24:23.082Z,102220.44
2019-01-04T08:26:53.999Z,102216.13
2019-01-04T08:29:24.795Z,102205.29
2019-01-04T08:31:55.624Z,102202.13
2019-01-04T08:34:26.385Z,102199.03
2019-01-04T08:36:57.254Z,102192.59
2019-01-04T08:39:28.068Z,102187.03
2019-01-04T08:41:58.921Z,102184.76
2019-01-04T08:44:29.704Z,102170.75
2019-01-04T08:47:00.568Z,102172.19
2019-01-04T08:49:31.346Z,102165.23
2019-01-04T08:52:02.191Z,102163.93
2019-01-04T08:54:33.106Z,102161.44
2019-01-04T08:57:04.108Z,102159.45
2019-01-04T08:59:34.842Z,102155.30
2019-01-04T09:02:05.626Z,102159.52
2019-01-04T09:04:39.149Z,102159.66
2019-01-04T09:07:09.934Z,102154.12
2019-01-04T09:09:40.709Z,102157.46
2019-01-04T09:12:11.512Z,102157.19
2019-01-04T09:14:42.500Z,102152.80
2019-01-04T09:17:13.341Z,102151.00
2019-01-04T09:19:44.142Z,102139.94
2019-01-04T09:22:15.814Z,102138.91
2019-01-04T09:24:47.104Z,102132.02
2019-01-04T09:27:17.857Z,102132.45
2019-01-04T09:29:48.670Z,102127.19
2019-01-04T09:32:19.523Z,102137.03
2019-01-04T09:34:50.445Z,102136.58
2019-01-04T09:37:21.366Z,102131.70
2019-01-04T09:39:52.168Z,102126.42
2019-01-04T09:42:24.606Z,102113.23
2019-01-04T09:44:55.405Z,102113.66
2019-01-04T09:47:26.182Z,102099.52
2019-01-04T09:49:57.005Z,102098.88
2019-01-04T09:52:27.821Z,102084.80
2019-01-04T09:54:58.629Z,102080.05
2019-01-04T09:57:29.469Z,102066.55
2019-01-04T10:00:00.431Z,102054.22
2019-01-04T10:02:31.224Z,102057.67
2019-01-04T10:05:04.031Z,102061.44
2019-01-04T10:07:34.857Z,102059.08
2019-01-04T10:10:06.493Z,102050.41
2019-01-04T10:12:38.342Z,102048.89
2019-01-04T10:15:18.578Z,102032.69
2019-01-04T10:17:49.441Z,102019.03
2019-01-04T10:20:20.261Z,102007.62
2019-01-04T10:22:51.082Z,102009.33
2019-01-04T10:25:21.909Z,102003.59
2019-01-04T10:27:52.711Z,101992.16
2019-01-04T10:30:28.456Z,101988.25
2019-01-04T10:32:59.304Z,101982.02
2019-01-04T10:35:30.077Z,101967.22
2019-01-04T10:38:00.950Z,101965.66
2019-01-04T10:40:31.818Z,101966.09
2019-01-04T10:43:02.621Z,101963.31
2019-01-04T10:45:34.131Z,101946.92
2019-01-04T10:48:04.990Z,101945.96
2019-01-04T10:50:35.823Z,101934.44
2019-01-04T10:53:06.720Z,101922.26
2019-01-04T10:55:37.576Z,101920.34
2019-01-04T10:58:08.392Z,101910.72
2019-01-04T11:00:39.185Z,101901.04
2019-01-04T11:03:10.003Z,101900.49
2019-01-04T11:05:40.964Z,101883.88
2019-01-04T11:08:12.239Z,101875.55
2019-01-04T11:10:43.060Z,101873.64
2019-01-04T11:13:13.846Z,101867.81
2019-01-04T11:15:44.598Z,101857.72
2019-01-04T11:18:15.424Z,101852.80
2019-01-04T11:20:52.697Z,101849.79
2019-01-04T11:24:20.941Z,101842.76
2019-01-04T11:27:14.911Z,101835.69
2019-01-04T11:30:48.877Z,101829.53
2019-01-04T11:34:10.674Z,101828.45
2019-01-04T11:37:48.065Z,101825.65
2019-01-04T11:41:12.244Z,101815.52
2019-01-04T11:44:36.084Z,101817.40
2019-01-04T11:48:26.772Z,101808.53
2019-01-04T11:51:44.885Z,101798.88
2019-01-04T11:54:21.839Z,101789.75
2019-01-04T11:56:52.900Z,101785.81
2019-01-04T12:03:31.357Z,101772.84
2019-01-04T12:06:52.812Z,101763.89
2019-01-04T12:10:53.916Z,101760.27
2019-01-04T12:14:01.650Z,101746.21
2019-01-04T12:16:32.788Z,101744.22
2019-01-04T12:19:03.932Z,101737.29
2019-01-04T12:21:35.258Z,101731.05
2019-01-04T12:24:06.116Z,101727.51
2019-01-04T12:26:36.935Z,101717.94
2019-01-04T12:29:07.741Z,101716.48
2019-01-04T12:31:38.516Z,101708.44
2019-01-04T12:34:09.661Z,101704.20
2019-01-04T12:36:40.511Z,101712.36
2019-01-04T12:39:11.859Z,101698.77
2019-01-04T12:41:42.688Z,101696.30
2019-01-04T12:44:14.198Z,101699.77
2019-01-04T12:46:52.681Z,101698.62
2019-01-04T12:49:24.332Z,101708.23
2019-01-04T12:51:55.151Z,101712.78
2019-01-04T12:54:26.416Z,101705.04
2019-01-04T12:56:57.517Z,101716.80
2019-01-04T12:59:35.558Z,101712.14
2019-01-04T13:02:06.463Z,101708.23
2019-01-04T13:04:37.408Z,101703.52
2019-01-04T13:07:08.308Z,101709.48
2019-01-04T13:09:41.359Z,101717.44
2019-01-04T13:12:13.443Z,101715.66
2019-01-04T13:14:44.623Z,101717.44
2019-01-04T13:17:15.920Z,101711.36
2019-01-04T13:20:57.243Z,101717.86
2019-01-04T13:23:28.419Z,101709.22
2019-01-04T13:25:59.779Z,101704.41
2019-01-04T13:28:31.565Z,101699.74
2019-01-04T13:31:04.253Z,101686.10
2019-01-04T13:33:36.633Z,101689.98
2019-01-04T13:36:11.117Z,101688.30
2019-01-04T13:38:42.039Z,101698.49
2019-01-04T13:41:12.848Z,101701.75
2019-01-04T13:44:43.660Z,101687.73
2019-01-04T13:50:54.971Z,101682.95
2019-01-04T13:54:04.911Z,101677.57
2019-01-04T13:56:37.390Z,101676.20
2019-01-04T13:59:09.633Z,101680.56
2019-01-04T14:01:41.720Z,101685.31
2019-01-04T14:04:12.653Z,101683.22
2019-01-04T14:06:43.488Z,101678.88
2019-01-04T14:09:14.549Z,101680.98
2019-01-04T14:11:48.163Z,101678.81
2019-01-04T14:14:35.226Z,101670.56
2019-01-04T14:17:06.189Z,101652.26
2019-01-04T14:19:37.575Z,101638.34
2019-01-04T14:27:06.311Z,101615.77
2019-01-04T14:29:37.419Z,101590.66
2019-01-04T14:32:08.742Z,101595.84
2019-01-04T14:35:46.890Z,101599.70
2019-01-04T14:38:19.289Z,101595.93
2019-01-04T14:41:04.352Z,101605.45
2019-01-04T14:48:10.690Z,101612.33
2019-01-04T14:50:30.410Z,101604.80
2019-01-04T14:55:00.567Z,101608.62
2019-01-04T14:59:21.018Z,101600.27
2019-01-04T15:00:27.638Z,101585.66
2019-01-04T15:02:55.450Z,101580.09
2019-01-04T15:12:06.420Z,101583.50
2019-01-04T15:14:47.826Z,101577.53
2019-01-04T15:27:26.286Z,101591.03
2019-01-04T15:30:32.701Z,101593.78
2019-01-04T15:48:05.937Z,101607.70
2019-01-04T15:50:31.334Z,101596.45
2019-01-04T15:53:03.702Z,101580.66
2019-01-04T15:55:36.153Z,101588.61
2019-01-04T15:58:07.167Z,101578.19
2019-01-04T16:00:38.064Z,101577.30
2019-01-04T16:03:22.757Z,101573.34
2019-01-04T16:05:56.621Z,101567.77
2019-01-04T16:08:27.458Z,101556.00
2019-01-04T16:13:49.746Z,101536.47
2019-01-04T16:16:25.134Z,101527.70
2019-01-04T16:18:56.297Z,101522.89
2019-01-04T16:23:07.445Z,101525.17
2019-01-04T16:25:21.446Z,101528.77
2019-01-04T16:27:52.780Z,101519.95
2019-01-04T16:30:28.493Z,101527.08
2019-01-04T16:32:59.512Z,101524.28
2019-01-04T16:35:33.377Z,101521.72
2019-01-04T16:38:05.921Z,101528.30
2019-01-04T16:40:36.964Z,101529.23
2019-01-04T16:43:11.185Z,101534.00
2019-01-04T16:46:32.009Z,101532.45
2019-01-04T16:50:57.320Z,101540.62
2019-01-04T16:53:30.564Z,101537.92
2019-01-04T16:56:01.573Z,101537.55
2019-01-04T16:58:32.490Z,101527.33
2019-01-04T17:01:07.175Z,101525.35
2019-01-04T17:03:39.687Z,101530.59
2019-01-04T17:06:10.739Z,101535.16
2019-01-04T17:08:41.975Z,101542.66
2019-01-04T17:11:12.965Z,101543.46
2019-01-04T17:13:43.925Z,101538.98
2019-01-04T17:16:19.125Z,101523.89
2019-01-04T17:18:51.698Z,101515.31
2019-01-04T17:21:35.045Z,101519.75
2019-01-04T17:23:57.174Z,101521.52
2019-01-04T17:26:28.108Z,101514.38
2019-01-04T17:28:58.917Z,101518.66
2019-01-04T17:31:29.802Z,101524.64
2019-01-04T17:34:00.695Z,101514.81
2019-01-04T17:36:31.622Z,101516.55
2019-01-04T17:39:02.604Z,101514.64
2019-01-04T17:41:35.224Z,101510.30
2019-01-04T17:44:06.186Z,101510.25
2019-01-04T17:46:37.153Z,101505.07
2019-01-04T17:49:07.939Z,101509.88
2019-01-04T17:51:38.873Z,101507.02
2019-01-04T17:54:09.668Z,101498.60
2019-01-04T17:57:19.560Z,101507.84
2019-01-04T17:59:50.525Z,101510.72
2019-01-04T18:02:21.586Z,101500.72
2019-01-04T18:04:55.993Z,101502.36
2019-01-04T18:10:08.088Z,101508.44
2019-01-04T18:15:13.909Z,101509.49
2019-01-04T18:18:02.544Z,101514.77
2019-01-04T18:20:30.154Z,101521.23
2019-01-04T18:25:39.039Z,101519.88
2019-01-04T18:29:14.702Z,101518.95
2019-01-04T18:30:52.964Z,101514.69
2019-01-04T18:33:31.067Z,101509.49
2019-01-04T18:36:02.205Z,101509.41
2019-01-04T18:38:33.274Z,101508.65
2019-01-04T18:41:04.592Z,101506.95
2019-01-04T18:43:36.587Z,101510.89
2019-01-04T18:46:07.717Z,101509.15
2019-01-04T18:48:42.127Z,101516.45
2019-01-04T18:51:13.569Z,101504.50
2019-01-04T18:53:46.521Z,101516.32
2019-01-04T18:56:17.720Z,101512.66
2019-01-04T18:58:49.017Z,101516.74
2019-01-04T19:01:19.805Z,101518.02
2019-01-04T19:03:50.788Z,101522.95
2019-01-04T19:06:22.133Z,101518.05
2019-01-04T19:08:52.907Z,101515.91
2019-01-04T19:11:23.771Z,101517.71
2019-01-04T19:13:54.730Z,101518.95
2019-01-04T19:16:25.749Z,101517.33
2019-01-04T19:18:56.991Z,101525.11
2019-01-04T19:21:27.942Z,101522.95
2019-01-04T19:24:00.144Z,101520.88
2019-01-04T19:26:31.877Z,101519.52
2019-01-04T19:29:03.206Z,101516.33
2019-01-04T19:31:36.821Z,101520.45
2019-01-04T19:34:07.790Z,101519.95
2019-01-04T19:36:43.021Z,101518.72
2019-01-04T19:39:15.256Z,101520.99
2019-01-04T19:41:48.294Z,101509.98
2019-01-04T19:44:19.669Z,101507.52
2019-01-04T19:46:51.196Z,101504.44
2019-01-04T19:49:22.406Z,101489.19
2019-01-04T19:51:59.064Z,101491.30
2019-01-04T19:55:08.870Z,101491.84
2019-01-04T19:57:40.251Z,101493.16
2019-01-04T20:00:15.086Z,101487.41
2019-01-04T20:02:53.390Z,101479.53
2019-01-04T20:18:01.699Z,101451.64
2019-01-04T20:20:55.409Z,101452.61
2019-01-04T20:23:47.190Z,101452.15
2019-01-04T20:26:37.397Z,101452.11
2019-01-04T20:29:26.810Z,101446.52
2019-01-04T20:32:22.643Z,101449.18
2019-01-04T20:35:21.911Z,101443.55
2019-01-04T20:38:10.824Z,101446.59
2019-01-04T20:41:04.028Z,101433.58
2019-01-04T20:43:53.051Z,101430.88
2019-01-04T20:46:52.387Z,101429.00
2019-01-04T20:49:43.083Z,101423.17
2019-01-04T20:52:26.446Z,101422.78
2019-01-04T20:55:17.935Z,101413.94
2019-01-04T20:58:07.812Z,101408.20
2019-01-04T21:01:10.884Z,101406.08
2019-01-04T21:04:14.616Z,101401.05
2019-01-04T21:10:54.956Z,101398.36
2019-01-04T21:13:21.138Z,101395.60
2019-01-04T21:16:11.823Z,101401.30
2019-01-04T21:19:06.968Z,101395.25
2019-01-04T21:22:06.273Z,101393.55
2019-01-04T21:24:56.055Z,101388.73
2019-01-04T21:27:52.408Z,101379.89
2019-01-04T21:30:37.200Z,101373.02
2019-01-04T21:33:27.605Z,101374.03
2019-01-04T21:36:23.403Z,101383.14
2019-01-04T21:39:11.932Z,101370.95
2019-01-04T21:42:14.130Z,101367.88
2019-01-04T21:45:02.883Z,101365.33
2019-01-04T21:47:55.920Z,101367.59
2019-01-04T21:50:57.719Z,101370.11
2019-01-04T21:53:42.663Z,101370.92
2019-01-04T21:56:47.787Z,101368.38
2019-01-04T21:59:37.088Z,101365.52
2019-01-04T22:02:56.176Z,101365.78
2019-01-04T22:05:39.976Z,101360.52
2019-01-04T22:08:35.899Z,101363.56
2019-01-04T22:11:24.678Z,101365.81
2019-01-04T22:14:13.079Z,101362.70
2019-01-04T22:17:02.142Z,101361.40
2019-01-04T22:19:48.928Z,101365.03
2019-01-04T22:22:53.904Z,101356.65
2019-01-04T22:25:58.560Z,101346.50
2019-01-04T22:28:48.589Z,101347.64
2019-01-04T22:31:37.668Z,101342.40
2019-01-04T22:34:22.405Z,101343.50
2019-01-04T22:37:30.075Z,101344.16
2019-01-04T22:40:28.559Z,101349.73
2019-01-04T22:43:27.291Z,101338.52
2019-01-04T22:46:19.950Z,101337.52
2019-01-04T22:49:08.603Z,101325.36
2019-01-04T22:51:57.267Z,101331.56
2019-01-04T22:54:56.028Z,101316.75
2019-01-04T22:57:45.042Z,101316.81
2019-01-04T23:00:44.785Z,101320.31
2019-01-04T23:03:43.582Z,101309.38
2019-01-04T23:06:32.483Z,101305.27
2019-01-04T23:09:26.978Z,101302.30
2019-01-04T23:12:15.512Z,101304.44
2019-01-04T23:15:19.909Z,101300.56
2019-01-04T23:18:07.021Z,101302.39
2019-01-04T23:21:05.775Z,101290.54
2019-01-04T23:23:55.527Z,101293.64
2019-01-04T23:26:44.250Z,101276.12
2019-01-04T23:29:37.006Z,101281.34
2019-01-04T23:32:26.713Z,101268.69
2019-01-04T23:35:25.746Z,101261.27
2019-01-04T23:38:14.216Z,101253.36
2019-01-04T23:41:03.875Z,101254.62
2019-01-04T23:43:56.384Z,101256.75
2019-01-04T23:46:41.160Z,101247.48
2019-01-04T23:49:40.355Z,101232.77
2019-01-04T23:52:35.681Z,101223.61
2019-01-04T23:55:34.452Z,101220.14
2019-01-04T23:58:24.138Z,101212.73
